createdAt,value
2022-11-20T00:00:33.299Z,4.23
2022-11-20T00:01:35.231Z,4.10
2022-11-20T00:02:36.803Z,3.93
2022-11-20T00:03:38.774Z,4.43
2022-11-20T00:04:40.477Z,3.97
2022-11-20T00:05:42.528Z,4.47
2022-11-20T00:06:43.946Z,4.10
2022-11-20T00:07:45.307Z,4.03
2022-11-20T00:08:47.325Z,3.80
2022-11-20T00:09:48.709Z,3.47
2022-11-20T00:10:50.109Z,3.97
2022-11-20T00:11:51.655Z,3.67
2022-11-20T00:12:53.193Z,3.83
2022-11-20T00:13:58.273Z,3.60
2022-11-20T00:14:59.716Z,3.80
2022-11-20T00:16:03.732Z,4.03
2022-11-20T00:17:05.121Z,3.90
2022-11-20T00:18:06.501Z,3.87
2022-11-20T00:19:08.403Z,3.80
2022-11-20T00:20:10.733Z,4.00
2022-11-20T00:21:14.903Z,4.03
2022-11-20T00:22:16.643Z,3.83
2022-11-20T00:23:18.070Z,3.80
2022-11-20T00:24:19.693Z,3.23
2022-11-20T00:25:21.100Z,3.73
2022-11-20T00:26:24.238Z,3.27
2022-11-20T00:27:25.651Z,3.47
2022-11-20T00:28:27.029Z,3.77
2022-11-20T00:29:28.429Z,3.60
2022-11-20T00:30:29.872Z,3.40
2022-11-20T00:31:31.952Z,3.80
2022-11-20T00:32:33.323Z,3.50
2022-11-20T00:33:35.178Z,3.50
2022-11-20T00:34:36.645Z,3.40
2022-11-20T00:35:38.036Z,3.90
2022-11-20T00:36:39.653Z,3.40
2022-11-20T00:37:41.680Z,3.10
2022-11-20T00:38:43.860Z,3.10
2022-11-20T00:39:45.244Z,3.10
2022-11-20T00:40:49.809Z,3.60
2022-11-20T00:41:53.972Z,3.07
2022-11-20T00:42:55.627Z,2.97
2022-11-20T00:43:57.743Z,3.10
2022-11-20T00:44:59.129Z,3.13
2022-11-20T00:46:02.140Z,3.33
2022-11-20T00:47:03.850Z,2.90
2022-11-20T00:48:05.647Z,2.73
2022-11-20T00:49:07.119Z,2.83
2022-11-20T00:50:08.977Z,3.03
2022-11-20T00:51:13.381Z,3.00
2022-11-20T00:52:14.782Z,3.20
2022-11-20T00:53:16.237Z,3.17
2022-11-20T00:54:17.884Z,3.53
2022-11-20T00:55:19.337Z,3.10
2022-11-20T00:56:21.484Z,3.37
2022-11-20T00:57:23.198Z,2.87
2022-11-20T00:58:26.308Z,2.87
2022-11-20T00:59:28.565Z,2.90
2022-11-20T01:00:30.004Z,3.20
2022-11-20T01:01:31.621Z,3.33
2022-11-20T01:02:33.105Z,3.20
2022-11-20T01:03:36.346Z,3.30
2022-11-20T01:04:37.775Z,3.50
2022-11-20T01:05:39.434Z,3.90
2022-11-20T01:06:41.352Z,4.23
2022-11-20T01:07:42.736Z,3.53
2022-11-20T01:08:45.552Z,3.37
2022-11-20T01:09:47.252Z,3.60
2022-11-20T01:10:48.706Z,3.50
2022-11-20T01:11:50.560Z,3.00
2022-11-20T01:13:11.912Z,3.40
2022-11-20T01:14:16.854Z,3.43
2022-11-20T01:15:18.686Z,3.00
2022-11-20T01:16:21.943Z,2.83
2022-11-20T01:17:23.420Z,3.00
2022-11-20T01:18:24.841Z,3.30
2022-11-20T01:19:26.305Z,3.87
2022-11-20T01:20:27.926Z,3.30
2022-11-20T01:21:31.921Z,3.10
2022-11-20T01:22:33.908Z,3.47
2022-11-20T01:23:37.590Z,3.43
2022-11-20T01:24:38.964Z,2.90
2022-11-20T01:25:40.403Z,3.20
2022-11-20T01:26:44.251Z,3.90
2022-11-20T01:27:46.211Z,3.00
2022-11-20T01:28:48.693Z,3.30
2022-11-20T01:29:50.282Z,2.97
2022-11-20T01:30:51.741Z,2.70
2022-11-20T01:31:54.116Z,3.03
2022-11-20T01:32:56.661Z,3.43
2022-11-20T01:34:00.499Z,3.57
2022-11-20T01:35:01.952Z,3.13
2022-11-20T01:36:07.092Z,3.20
2022-11-20T01:37:08.764Z,3.37
2022-11-20T01:38:10.230Z,3.30
2022-11-20T01:39:23.735Z,3.33
2022-11-20T01:40:25.448Z,3.23
2022-11-20T01:41:47.596Z,3.50
2022-11-20T01:43:15.316Z,2.80
2022-11-20T01:44:20.069Z,3.20
2022-11-20T01:45:51.770Z,2.80
2022-11-20T01:47:02.881Z,3.03
2022-11-20T01:48:04.702Z,3.30
2022-11-20T01:49:12.281Z,3.47
2022-11-20T01:50:23.581Z,2.83
2022-11-20T01:51:50.707Z,2.33
2022-11-20T01:52:56.780Z,2.90
2022-11-20T01:54:03.571Z,2.70
2022-11-20T01:55:10.248Z,2.70
2022-11-20T01:56:14.487Z,2.50
2022-11-20T01:57:17.915Z,2.60
2022-11-20T01:58:23.597Z,2.80
2022-11-20T01:59:26.394Z,3.63
2022-11-20T02:00:28.004Z,2.50
2022-11-20T02:01:29.760Z,2.50
2022-11-20T02:02:32.403Z,3.03
2022-11-20T02:03:33.908Z,3.03
2022-11-20T02:04:36.249Z,3.27
2022-11-20T02:06:13.636Z,2.70
2022-11-20T02:07:15.440Z,2.57
2022-11-20T02:08:18.370Z,3.13
2022-11-20T02:09:19.952Z,3.20
2022-11-20T02:10:22.188Z,3.10
2022-11-20T02:11:23.672Z,2.90
2022-11-20T02:12:43.759Z,2.53
2022-11-20T02:13:46.396Z,2.93
2022-11-20T02:14:47.812Z,2.50
2022-11-20T02:15:50.121Z,2.83
2022-11-20T02:16:52.505Z,3.50
2022-11-20T02:17:55.211Z,3.00
2022-11-20T02:18:59.731Z,3.00
2022-11-20T02:20:01.368Z,2.70
2022-11-20T02:21:16.488Z,2.63
2022-11-20T02:22:32.167Z,3.33
2022-11-20T02:23:40.385Z,2.57
2022-11-20T02:24:44.520Z,2.27
2022-11-20T02:25:48.313Z,2.83
2022-11-20T02:26:56.721Z,3.00
2022-11-20T02:27:58.400Z,2.83
2022-11-20T02:29:01.226Z,2.40
2022-11-20T02:30:06.424Z,2.63
2022-11-20T02:31:08.688Z,2.67
2022-11-20T02:32:24.848Z,2.60
2022-11-20T02:33:26.428Z,2.80
2022-11-20T02:34:28.003Z,2.40
2022-11-20T02:35:29.561Z,2.70
2022-11-20T02:36:32.874Z,2.87
2022-11-20T02:37:39.781Z,2.37
2022-11-20T02:38:43.213Z,2.33
2022-11-20T02:39:48.605Z,2.53
2022-11-20T02:40:55.139Z,2.40
2022-11-20T02:41:58.100Z,2.83
2022-11-20T02:42:59.719Z,2.73
2022-11-20T02:44:01.312Z,2.63
2022-11-20T02:45:02.917Z,2.80
2022-11-20T02:46:07.379Z,3.13
2022-11-20T02:47:09.412Z,2.73
2022-11-20T02:48:10.846Z,3.13
2022-11-20T02:49:12.290Z,2.77
2022-11-20T02:50:14.179Z,2.70
2022-11-20T02:51:15.566Z,2.90
2022-11-20T02:52:17.155Z,2.33
2022-11-20T02:53:18.547Z,2.50
2022-11-20T02:54:20.173Z,2.57
2022-11-20T02:55:21.623Z,2.33
2022-11-20T02:56:23.369Z,2.23
2022-11-20T02:57:25.210Z,2.60
2022-11-20T02:58:26.603Z,2.60
2022-11-20T02:59:28.018Z,2.50
2022-11-20T03:00:29.878Z,2.70
2022-11-20T03:01:31.419Z,2.77
2022-11-20T03:02:34.169Z,2.60
2022-11-20T03:03:35.826Z,2.50
2022-11-20T03:04:37.660Z,2.57
2022-11-20T03:05:39.368Z,2.77
2022-11-20T03:06:41.168Z,2.20
2022-11-20T03:07:44.245Z,2.30
2022-11-20T03:08:45.722Z,2.77
2022-11-20T03:09:47.314Z,2.50
2022-11-20T03:10:48.914Z,2.30
2022-11-20T03:11:50.327Z,2.53
2022-11-20T03:12:57.715Z,2.33
2022-11-20T03:14:02.247Z,2.20
2022-11-20T03:15:04.233Z,2.00
2022-11-20T03:16:08.370Z,2.43
2022-11-20T03:17:10.298Z,3.03
2022-11-20T03:18:12.087Z,2.30
2022-11-20T03:19:13.902Z,3.20
2022-11-20T03:20:15.758Z,2.50
2022-11-20T03:21:17.789Z,2.77
2022-11-20T03:22:19.216Z,2.27
2022-11-20T03:23:20.813Z,2.60
2022-11-20T03:24:22.271Z,2.50
2022-11-20T03:25:23.734Z,2.30
2022-11-20T03:26:28.040Z,3.00
2022-11-20T03:27:34.578Z,2.13
2022-11-20T03:28:36.843Z,2.10
2022-11-20T03:29:39.742Z,2.87
2022-11-20T03:30:41.924Z,2.30
2022-11-20T03:31:43.642Z,2.30
2022-11-20T03:32:45.152Z,2.40
2022-11-20T03:33:46.855Z,2.30
2022-11-20T03:34:48.265Z,2.20
2022-11-20T03:35:49.750Z,2.87
2022-11-20T03:36:51.207Z,2.10
2022-11-20T03:37:52.886Z,2.07
2022-11-20T03:38:56.356Z,2.27
2022-11-20T03:39:57.764Z,2.03
2022-11-20T03:41:04.915Z,2.50
2022-11-20T03:42:26.386Z,2.83
2022-11-20T03:43:28.913Z,2.70
2022-11-20T03:44:31.022Z,2.10
2022-11-20T03:45:32.491Z,2.47
2022-11-20T03:46:34.105Z,2.30
2022-11-20T03:47:35.576Z,2.23
2022-11-20T03:48:37.025Z,2.03
2022-11-20T03:49:38.657Z,2.20
2022-11-20T03:50:40.071Z,2.47
2022-11-20T03:51:41.798Z,2.50
2022-11-20T03:52:43.473Z,2.40
2022-11-20T03:53:46.526Z,2.47
2022-11-20T03:54:48.127Z,2.33
2022-11-20T03:55:52.755Z,2.50
2022-11-20T03:56:54.332Z,3.10
2022-11-20T03:57:55.745Z,2.03
2022-11-20T03:58:57.829Z,2.33
2022-11-20T03:59:59.599Z,2.30
2022-11-20T04:01:07.419Z,2.37
2022-11-20T04:02:08.899Z,2.20
2022-11-20T04:03:10.366Z,2.73
2022-11-20T04:04:11.755Z,2.03
2022-11-20T04:05:13.625Z,2.60
2022-11-20T04:06:20.584Z,2.00
2022-11-20T04:07:22.083Z,2.20
2022-11-20T04:08:23.525Z,2.50
2022-11-20T04:09:24.962Z,2.57
2022-11-20T04:10:26.585Z,2.30
2022-11-20T04:11:33.377Z,2.97
2022-11-20T04:12:34.894Z,2.20
2022-11-20T04:13:36.533Z,2.67
2022-11-20T04:14:37.934Z,2.33
2022-11-20T04:15:39.406Z,2.23
2022-11-20T04:16:41.166Z,2.20
2022-11-20T04:17:42.536Z,2.50
2022-11-20T04:18:44.369Z,2.20
2022-11-20T04:19:45.794Z,2.20
2022-11-20T04:20:47.376Z,2.57
2022-11-20T04:21:48.788Z,3.07
2022-11-20T04:22:50.492Z,2.10
2022-11-20T04:23:53.714Z,2.30
2022-11-20T04:24:55.402Z,2.23
2022-11-20T04:26:09.255Z,2.60
2022-11-20T04:27:10.700Z,2.30
2022-11-20T04:28:12.290Z,2.30
2022-11-20T04:29:14.154Z,2.63
2022-11-20T04:30:15.910Z,2.27
2022-11-20T04:31:20.529Z,2.23
2022-11-20T04:32:22.074Z,2.40
2022-11-20T04:33:23.461Z,2.30
2022-11-20T04:34:24.924Z,2.50
2022-11-20T04:35:26.281Z,2.40
2022-11-20T04:36:29.334Z,2.30
2022-11-20T04:37:31.061Z,2.13
2022-11-20T04:38:32.878Z,2.23
2022-11-20T04:39:34.396Z,2.20
2022-11-20T04:40:35.860Z,1.90
2022-11-20T04:41:37.879Z,2.37
2022-11-20T04:42:39.318Z,2.10
2022-11-20T04:43:40.748Z,2.00
2022-11-20T04:44:42.418Z,2.37
2022-11-20T04:45:43.983Z,2.00
2022-11-20T04:46:45.389Z,2.60
2022-11-20T04:47:47.030Z,2.33
2022-11-20T04:48:48.920Z,1.90
2022-11-20T04:49:50.356Z,2.40
2022-11-20T04:50:52.429Z,1.90
2022-11-20T04:51:56.696Z,2.17
2022-11-20T04:52:58.519Z,2.40
2022-11-20T04:54:00.619Z,2.20
2022-11-20T04:55:02.212Z,2.17
2022-11-20T04:56:06.255Z,1.93
2022-11-20T04:57:12.990Z,2.37
2022-11-20T04:58:17.807Z,2.00
2022-11-20T04:59:19.394Z,2.77
2022-11-20T05:00:21.729Z,2.30
2022-11-20T05:01:25.293Z,1.90
2022-11-20T05:02:26.805Z,2.40
2022-11-20T05:03:28.487Z,2.50
2022-11-20T05:04:30.187Z,2.03
2022-11-20T05:05:31.732Z,2.33
2022-11-20T05:06:33.644Z,1.97
2022-11-20T05:07:35.290Z,2.37
2022-11-20T05:08:36.741Z,2.40
2022-11-20T05:09:38.186Z,2.37
2022-11-20T05:10:39.925Z,2.03
2022-11-20T05:11:41.511Z,1.97
2022-11-20T05:12:42.937Z,2.50
2022-11-20T05:13:44.598Z,2.20
2022-11-20T05:14:46.430Z,2.10
2022-11-20T05:15:48.220Z,2.20
2022-11-20T05:16:49.925Z,1.90
2022-11-20T05:17:52.700Z,2.07
2022-11-20T05:18:55.355Z,2.03
2022-11-20T05:19:56.889Z,1.93
2022-11-20T05:20:59.436Z,2.17
2022-11-20T05:22:00.986Z,2.10
2022-11-20T05:23:02.858Z,1.90
2022-11-20T05:24:04.587Z,1.93
2022-11-20T05:25:06.351Z,2.27
2022-11-20T05:26:12.740Z,2.17
2022-11-20T05:27:14.440Z,2.50
2022-11-20T05:28:16.000Z,2.00
2022-11-20T05:29:17.466Z,2.10
2022-11-20T05:30:19.107Z,1.90
2022-11-20T05:31:28.153Z,2.00
2022-11-20T05:32:30.078Z,1.90
2022-11-20T05:33:31.727Z,1.80
2022-11-20T05:34:33.291Z,2.20
2022-11-20T05:35:35.157Z,2.10
2022-11-20T05:36:36.732Z,2.00
2022-11-20T05:37:38.200Z,1.80
2022-11-20T05:38:40.308Z,1.73
2022-11-20T05:39:41.843Z,1.93
2022-11-20T05:40:43.214Z,2.23
2022-11-20T05:41:44.630Z,2.13
2022-11-20T05:42:46.002Z,2.17
2022-11-20T05:43:48.984Z,2.53
2022-11-20T05:44:50.400Z,1.80
2022-11-20T05:45:55.265Z,2.13
2022-11-20T05:46:56.673Z,2.10
2022-11-20T05:48:01.510Z,2.20
2022-11-20T05:49:03.159Z,2.23
2022-11-20T05:50:04.847Z,2.20
2022-11-20T05:51:09.303Z,2.20
2022-11-20T05:52:10.836Z,2.17
2022-11-20T05:53:12.609Z,2.07
2022-11-20T05:54:14.207Z,1.90
2022-11-20T05:55:15.677Z,1.97
2022-11-20T05:56:19.983Z,2.43
2022-11-20T05:57:21.337Z,1.80
2022-11-20T05:58:22.841Z,2.40
2022-11-20T05:59:24.421Z,2.07
2022-11-20T06:00:25.973Z,1.97
2022-11-20T06:01:27.461Z,1.87
2022-11-20T06:02:28.992Z,2.27
2022-11-20T06:03:30.466Z,1.80
2022-11-20T06:04:31.941Z,2.30
2022-11-20T06:05:34.837Z,2.63
2022-11-20T06:06:36.560Z,2.20
2022-11-20T06:07:38.144Z,2.47
2022-11-20T06:08:39.762Z,1.80
2022-11-20T06:09:41.780Z,2.20
2022-11-20T06:10:43.197Z,1.90
2022-11-20T06:11:44.830Z,2.07
2022-11-20T06:12:46.610Z,1.70
2022-11-20T06:13:49.863Z,2.30
2022-11-20T06:14:51.248Z,2.20
2022-11-20T06:15:54.358Z,1.80
2022-11-20T06:16:55.993Z,1.90
2022-11-20T06:17:57.622Z,1.63
2022-11-20T06:18:59.403Z,2.00
2022-11-20T06:20:00.872Z,2.13
2022-11-20T06:21:06.859Z,2.17
2022-11-20T06:22:08.281Z,1.90
2022-11-20T06:23:09.730Z,2.13
2022-11-20T06:24:11.872Z,2.03
2022-11-20T06:25:13.905Z,1.97
2022-11-20T06:26:21.271Z,1.97
2022-11-20T06:27:22.898Z,1.97
2022-11-20T06:28:24.255Z,2.47
2022-11-20T06:29:28.869Z,2.20
2022-11-20T06:30:34.611Z,2.07
2022-11-20T06:31:38.608Z,2.87
2022-11-20T06:32:40.291Z,1.87
2022-11-20T06:33:43.031Z,2.00
2022-11-20T06:34:44.644Z,1.97
2022-11-20T06:35:46.344Z,1.87
2022-11-20T06:36:47.721Z,1.90
2022-11-20T06:37:49.143Z,2.23
2022-11-20T06:38:50.816Z,1.80
2022-11-20T06:39:52.864Z,2.00
2022-11-20T06:40:54.912Z,1.80
2022-11-20T06:41:58.947Z,2.10
2022-11-20T06:43:00.993Z,2.23
2022-11-20T06:44:05.702Z,1.93
2022-11-20T06:45:07.667Z,1.80
2022-11-20T06:46:11.169Z,2.07
2022-11-20T06:47:12.535Z,2.00
2022-11-20T06:48:14.258Z,2.00
2022-11-20T06:49:15.720Z,1.93
2022-11-20T06:50:17.253Z,3.20
2022-11-20T06:51:18.854Z,1.80
2022-11-20T06:52:20.472Z,1.80
2022-11-20T06:53:23.547Z,2.53
2022-11-20T06:54:25.017Z,2.20
2022-11-20T06:55:26.414Z,1.93
2022-11-20T06:56:28.043Z,2.10
2022-11-20T06:57:29.422Z,2.37
2022-11-20T06:58:32.588Z,1.60
2022-11-20T06:59:34.027Z,2.13
2022-11-20T07:00:35.492Z,1.97
2022-11-20T07:01:37.077Z,1.97
2022-11-20T07:02:38.584Z,1.80
2022-11-20T07:03:40.544Z,2.00
2022-11-20T07:04:41.969Z,2.20
2022-11-20T07:05:43.864Z,2.50
2022-11-20T07:06:45.546Z,2.23
2022-11-20T07:07:46.960Z,2.00
2022-11-20T07:08:48.395Z,1.93
2022-11-20T07:09:49.756Z,1.90
2022-11-20T07:10:51.335Z,2.37
2022-11-20T07:11:53.347Z,2.17
2022-11-20T07:12:55.522Z,1.90
2022-11-20T07:13:58.054Z,2.07
2022-11-20T07:14:59.638Z,1.90
2022-11-20T07:16:02.980Z,2.10
2022-11-20T07:17:04.954Z,2.10
2022-11-20T07:18:06.339Z,2.23
2022-11-20T07:19:07.752Z,2.17
2022-11-20T07:20:09.690Z,1.70
2022-11-20T07:21:11.792Z,2.37
2022-11-20T07:22:14.151Z,2.03
2022-11-20T07:23:15.671Z,2.10
2022-11-20T07:24:17.081Z,2.10
2022-11-20T07:25:18.953Z,1.90
2022-11-20T07:26:20.841Z,1.80
2022-11-20T07:27:22.291Z,1.93
2022-11-20T07:28:23.931Z,1.80
2022-11-20T07:29:25.277Z,1.80
2022-11-20T07:30:28.483Z,1.93
2022-11-20T07:31:29.942Z,2.00
2022-11-20T07:32:31.373Z,1.90
2022-11-20T07:33:33.620Z,1.97
2022-11-20T07:34:35.029Z,2.07
2022-11-20T07:35:36.874Z,1.80
2022-11-20T07:36:38.336Z,2.00
2022-11-20T07:37:39.774Z,2.10
2022-11-20T07:38:41.284Z,1.90
2022-11-20T07:39:43.297Z,2.17
2022-11-20T07:40:44.966Z,2.13
2022-11-20T07:41:46.792Z,1.70
2022-11-20T07:42:52.806Z,2.00
2022-11-20T07:43:54.341Z,1.83
2022-11-20T07:44:55.777Z,2.50
2022-11-20T07:45:58.238Z,1.97
2022-11-20T07:46:59.838Z,2.10
2022-11-20T07:48:01.774Z,1.80
2022-11-20T07:49:03.447Z,2.00
2022-11-20T07:50:05.323Z,2.10
2022-11-20T07:51:06.828Z,2.50
2022-11-20T07:52:08.264Z,1.90
2022-11-20T07:53:09.668Z,1.93
2022-11-20T07:54:11.325Z,2.07
2022-11-20T07:55:13.189Z,1.97
2022-11-20T07:56:15.130Z,2.03
2022-11-20T07:57:16.579Z,1.93
2022-11-20T07:58:17.981Z,1.77
2022-11-20T07:59:20.173Z,1.90
2022-11-20T08:00:21.833Z,2.23
2022-11-20T08:01:23.335Z,2.23
2022-11-20T08:02:24.861Z,2.00
2022-11-20T08:03:26.595Z,2.10
2022-11-20T08:04:28.000Z,2.20
2022-11-20T08:05:29.390Z,2.03
2022-11-20T08:06:31.233Z,2.07
2022-11-20T08:07:43.371Z,2.13
2022-11-20T08:08:45.181Z,2.27
2022-11-20T08:09:46.835Z,2.40
2022-11-20T08:10:48.500Z,2.30
2022-11-20T08:12:08.583Z,2.87
2022-11-20T08:13:28.897Z,2.17
2022-11-20T08:14:30.377Z,2.17
2022-11-20T08:15:32.800Z,2.33
2022-11-20T08:16:34.205Z,2.10
2022-11-20T08:17:35.654Z,2.70
2022-11-20T08:18:37.219Z,2.27
2022-11-20T08:19:38.654Z,2.50
2022-11-20T08:20:40.243Z,2.77
2022-11-20T08:21:41.812Z,1.97
2022-11-20T08:22:43.251Z,2.20
2022-11-20T08:23:44.729Z,1.73
2022-11-20T08:24:46.135Z,2.10
2022-11-20T08:25:50.952Z,2.70
2022-11-20T08:26:52.449Z,1.80
2022-11-20T08:27:59.250Z,2.17
2022-11-20T08:29:02.233Z,2.20
2022-11-20T08:30:03.813Z,2.10
2022-11-20T08:31:05.510Z,2.47
2022-11-20T08:32:06.873Z,2.80
2022-11-20T08:33:09.950Z,2.57
2022-11-20T08:34:16.244Z,2.30
2022-11-20T08:35:20.575Z,2.30
2022-11-20T08:36:23.132Z,2.00
2022-11-20T08:37:24.870Z,2.20
2022-11-20T08:38:26.285Z,2.30
2022-11-20T08:39:27.671Z,2.03
2022-11-20T08:40:29.309Z,1.73
2022-11-20T08:41:34.058Z,1.93
2022-11-20T08:42:35.873Z,1.90
2022-11-20T08:43:37.342Z,2.40
2022-11-20T08:44:38.780Z,2.10
2022-11-20T08:45:40.195Z,2.37
2022-11-20T08:46:44.481Z,2.07
2022-11-20T08:47:47.053Z,2.17
2022-11-20T08:48:48.732Z,2.07
2022-11-20T08:49:50.756Z,2.70
2022-11-20T08:50:52.230Z,2.20
2022-11-20T08:51:56.120Z,2.00
2022-11-20T08:53:06.894Z,1.90
2022-11-20T08:54:09.359Z,1.90
2022-11-20T08:55:11.304Z,2.07
2022-11-20T08:56:13.236Z,1.90
2022-11-20T08:57:14.658Z,1.83
2022-11-20T08:58:16.126Z,2.40
2022-11-20T08:59:36.754Z,1.87
2022-11-20T09:00:39.179Z,1.87
2022-11-20T09:01:40.663Z,2.20
2022-11-20T09:02:42.095Z,2.07
2022-11-20T09:03:43.812Z,1.70
2022-11-20T09:04:45.246Z,2.30
2022-11-20T09:05:46.718Z,2.07
2022-11-20T09:06:51.886Z,2.07
2022-11-20T09:07:56.649Z,1.80
2022-11-20T09:09:02.024Z,2.00
2022-11-20T09:10:22.993Z,1.70
2022-11-20T09:11:25.910Z,1.73
2022-11-20T09:12:27.337Z,1.67
2022-11-20T09:13:29.860Z,2.10
2022-11-20T09:14:31.420Z,2.17
2022-11-20T09:15:33.389Z,1.90
2022-11-20T09:16:34.800Z,1.70
2022-11-20T09:17:36.804Z,1.93
2022-11-20T09:18:38.665Z,2.00
2022-11-20T09:19:41.081Z,2.43
2022-11-20T09:20:43.799Z,2.00
2022-11-20T09:21:45.239Z,2.70
2022-11-20T09:22:46.963Z,2.07
2022-11-20T09:23:48.442Z,2.70
2022-11-20T09:24:50.047Z,1.90
2022-11-20T09:25:51.619Z,1.90
2022-11-20T09:26:53.096Z,2.00
2022-11-20T09:27:58.432Z,2.00
2022-11-20T09:28:59.937Z,1.80
2022-11-20T09:30:01.784Z,1.60
2022-11-20T09:31:10.045Z,1.70
2022-11-20T09:32:11.748Z,2.10
2022-11-20T09:33:13.148Z,1.47
2022-11-20T09:34:14.588Z,2.30
2022-11-20T09:35:16.409Z,2.40
2022-11-20T09:36:19.531Z,1.90
2022-11-20T09:37:20.997Z,1.80
2022-11-20T09:38:22.402Z,2.00
2022-11-20T09:39:24.065Z,1.90
2022-11-20T09:40:28.845Z,2.40
2022-11-20T09:42:05.310Z,1.70
2022-11-20T09:43:35.757Z,2.10
2022-11-20T09:45:11.573Z,2.20
2022-11-20T09:46:26.642Z,1.80
2022-11-20T09:47:46.355Z,1.60
2022-11-20T09:49:27.553Z,1.53
2022-11-20T09:50:57.047Z,1.90
2022-11-20T09:52:20.620Z,1.90
2022-11-20T09:54:10.037Z,1.87
2022-11-20T09:55:15.358Z,2.10
2022-11-20T09:56:22.521Z,1.80
2022-11-20T09:57:36.541Z,1.60
2022-11-20T09:58:47.173Z,2.03
2022-11-20T09:59:56.056Z,1.80
2022-11-20T10:01:10.081Z,2.23
2022-11-20T10:02:25.328Z,1.90
2022-11-20T10:03:52.721Z,2.03
2022-11-20T10:05:43.760Z,1.63
2022-11-20T10:07:30.249Z,1.63
2022-11-20T10:08:26.371Z,1.93
2022-11-20T10:09:37.488Z,1.77
2022-11-20T10:10:53.613Z,1.77
2022-11-20T10:12:08.704Z,1.90
2022-11-20T10:13:13.097Z,1.87
2022-11-20T10:14:37.278Z,2.10
2022-11-20T10:16:02.240Z,1.90
2022-11-20T10:17:25.519Z,2.17
2022-11-20T10:18:52.704Z,1.80
2022-11-20T10:20:12.455Z,1.63
2022-11-20T10:21:38.035Z,2.20
2022-11-20T10:22:39.364Z,1.57
2022-11-20T10:24:01.806Z,1.80
2022-11-20T10:25:25.407Z,2.00
2022-11-20T10:26:42.334Z,1.90
2022-11-20T10:28:04.050Z,1.93
2022-11-20T10:29:15.580Z,1.90
2022-11-20T10:30:19.751Z,1.80
2022-11-20T10:31:40.955Z,2.10
2022-11-20T10:32:48.801Z,2.20
2022-11-20T10:34:11.457Z,2.00
2022-11-20T10:35:34.716Z,1.73
2022-11-20T10:36:59.173Z,2.13
2022-11-20T10:38:03.827Z,1.97
2022-11-20T10:39:15.569Z,1.70
2022-11-20T10:40:37.510Z,2.10
2022-11-20T10:41:42.898Z,2.13
2022-11-20T10:42:47.718Z,1.80
2022-11-20T10:43:52.657Z,2.23
2022-11-20T10:45:10.738Z,2.10
2022-11-20T10:46:19.123Z,1.80
2022-11-20T10:47:22.028Z,2.10
2022-11-20T10:48:28.889Z,1.70
2022-11-20T10:49:34.109Z,1.80
2022-11-20T10:50:41.314Z,1.57
2022-11-20T10:51:45.458Z,1.70
2022-11-20T10:52:59.504Z,1.93
2022-11-20T10:54:19.089Z,1.67
2022-11-20T10:55:29.397Z,1.47
2022-11-20T10:56:49.537Z,1.93
2022-11-20T10:58:00.281Z,1.50
2022-11-20T10:59:20.694Z,1.47
2022-11-20T11:00:22.796Z,1.80
2022-11-20T11:01:24.453Z,1.93
2022-11-20T11:02:37.427Z,2.03
2022-11-20T11:03:39.263Z,3.60
2022-11-20T11:04:46.290Z,1.60
2022-11-20T11:05:59.644Z,1.37
2022-11-20T11:07:13.132Z,1.60
2022-11-20T11:08:20.173Z,1.40
2022-11-20T11:09:32.918Z,1.43
2022-11-20T11:10:46.202Z,1.57
2022-11-20T11:11:48.552Z,1.40
2022-11-20T11:12:50.028Z,1.50
2022-11-20T11:13:51.973Z,1.50
2022-11-20T11:14:56.037Z,1.77
2022-11-20T11:15:58.642Z,1.67
2022-11-20T11:17:00.285Z,1.53
2022-11-20T11:18:01.696Z,2.33
2022-11-20T11:19:14.506Z,1.70
2022-11-20T11:20:22.023Z,1.80
2022-11-20T11:21:25.724Z,2.73
2022-11-20T11:22:33.248Z,3.53
2022-11-20T11:23:37.977Z,1.83
2022-11-20T11:24:42.565Z,2.10
2022-11-20T11:25:58.934Z,2.27
2022-11-20T11:27:16.445Z,2.40
2022-11-20T11:28:19.049Z,2.30
2022-11-20T11:29:21.239Z,2.33
2022-11-20T11:30:24.976Z,2.17
2022-11-20T11:31:28.674Z,2.03
2022-11-20T11:32:30.101Z,2.13
2022-11-20T11:33:34.650Z,1.90
2022-11-20T11:34:36.149Z,2.20
2022-11-20T11:35:53.456Z,2.00
2022-11-20T11:36:59.499Z,1.70
2022-11-20T11:38:13.365Z,2.37
2022-11-20T11:39:20.724Z,2.10
2022-11-20T11:40:24.576Z,1.67
2022-11-20T11:41:32.588Z,1.97
2022-11-20T11:42:34.831Z,1.70
2022-11-20T11:43:56.961Z,2.00
2022-11-20T11:45:06.503Z,2.40
2022-11-20T11:46:32.958Z,1.77
2022-11-20T11:47:45.800Z,1.70
2022-11-20T11:49:16.961Z,3.30
2022-11-20T11:50:29.761Z,1.70
2022-11-20T11:51:51.533Z,1.60
2022-11-20T11:52:52.938Z,1.70
2022-11-20T11:53:54.525Z,1.50
2022-11-20T11:55:09.920Z,1.70
2022-11-20T11:56:15.700Z,1.30
2022-11-20T11:57:35.488Z,1.70
2022-11-20T11:58:56.140Z,1.83
2022-11-20T12:00:00.501Z,1.73
2022-11-20T12:01:35.205Z,1.83
2022-11-20T12:02:45.599Z,1.83
2022-11-20T12:03:57.795Z,1.70
2022-11-20T12:05:06.487Z,1.90
2022-11-20T12:06:14.809Z,1.83
2022-11-20T12:07:47.580Z,2.00
2022-11-20T12:08:51.909Z,1.80
2022-11-20T12:09:55.486Z,1.93
2022-11-20T12:11:13.355Z,2.53
2022-11-20T12:12:23.284Z,1.70
2022-11-20T12:13:45.717Z,2.00
2022-11-20T12:14:51.174Z,1.80
2022-11-20T12:15:52.829Z,1.50
2022-11-20T12:16:56.671Z,1.83
2022-11-20T12:17:58.345Z,1.70
2022-11-20T12:18:59.903Z,1.80
2022-11-20T12:20:01.350Z,1.60
2022-11-20T12:21:08.380Z,1.70
2022-11-20T12:22:27.884Z,1.73
2022-11-20T12:23:39.473Z,1.50
2022-11-20T12:25:11.858Z,1.60
2022-11-20T12:26:32.860Z,2.00
2022-11-20T12:27:46.156Z,1.77
2022-11-20T12:28:56.818Z,1.80
2022-11-20T12:30:09.434Z,1.80
2022-11-20T12:31:39.832Z,1.60
2022-11-20T12:32:52.433Z,2.00
2022-11-20T12:34:15.784Z,1.50
2022-11-20T12:35:26.040Z,1.60
2022-11-20T12:36:51.969Z,1.73
2022-11-20T12:38:30.920Z,1.90
2022-11-20T12:39:39.341Z,1.87
2022-11-20T12:40:50.033Z,1.70
2022-11-20T12:42:40.221Z,2.13
2022-11-20T12:44:24.839Z,2.10
2022-11-20T12:45:34.830Z,1.67
2022-11-20T12:46:53.314Z,1.63
2022-11-20T12:48:09.462Z,2.33
2022-11-20T12:49:42.511Z,1.70
2022-11-20T12:51:15.175Z,2.03
2022-11-20T12:52:27.721Z,1.83
2022-11-20T12:54:03.059Z,1.73
2022-11-20T12:55:15.855Z,2.13
2022-11-20T12:56:20.537Z,1.60
2022-11-20T12:57:33.674Z,1.60
2022-11-20T12:58:53.986Z,1.50
2022-11-20T12:59:58.310Z,2.73
2022-11-20T13:01:44.837Z,1.70
2022-11-20T13:02:58.323Z,1.70
2022-11-20T13:04:10.692Z,1.60
2022-11-20T13:05:25.211Z,1.90
2022-11-20T13:06:27.300Z,2.30
2022-11-20T13:07:30.498Z,1.60
2022-11-20T13:08:39.528Z,1.90
2022-11-20T13:09:49.553Z,2.10
2022-11-20T13:11:08.344Z,1.70
2022-11-20T13:12:27.914Z,2.00
2022-11-20T13:13:36.806Z,2.00
2022-11-20T13:15:03.393Z,2.13
2022-11-20T13:16:14.341Z,2.03
2022-11-20T13:17:36.083Z,1.80
2022-11-20T13:18:42.754Z,2.00
2022-11-20T13:19:52.896Z,1.60
2022-11-20T13:20:54.902Z,2.00
2022-11-20T13:21:56.504Z,1.70
2022-11-20T13:22:58.760Z,2.00
2022-11-20T13:24:24.271Z,2.40
2022-11-20T13:25:30.778Z,1.93
2022-11-20T13:26:32.722Z,1.93
2022-11-20T13:27:34.142Z,1.70
2022-11-20T13:28:36.628Z,1.90
2022-11-20T13:29:41.695Z,1.87
2022-11-20T13:30:56.319Z,1.90
2022-11-20T13:32:15.231Z,1.60
2022-11-20T13:33:38.097Z,1.80
2022-11-20T13:34:40.251Z,1.60
2022-11-20T13:35:43.344Z,1.63
2022-11-20T13:37:04.700Z,1.80
2022-11-20T13:38:13.294Z,2.73
2022-11-20T13:39:26.524Z,2.00
2022-11-20T13:40:28.456Z,3.17
2022-11-20T13:41:35.092Z,1.80
2022-11-20T13:42:40.679Z,2.20
2022-11-20T13:43:43.143Z,2.83
2022-11-20T13:44:49.425Z,2.00
2022-11-20T13:45:57.820Z,1.90
2022-11-20T13:46:59.494Z,2.10
2022-11-20T13:48:18.025Z,1.57
2022-11-20T13:49:32.530Z,1.53
2022-11-20T13:50:36.787Z,1.60
2022-11-20T13:51:45.960Z,2.00
2022-11-20T13:52:53.228Z,1.60
2022-11-20T13:53:54.571Z,1.50
2022-11-20T13:55:17.901Z,1.43
2022-11-20T13:56:31.475Z,2.00
2022-11-20T13:58:09.766Z,1.70
2022-11-20T13:59:16.740Z,1.43
2022-11-20T14:00:20.804Z,1.63
2022-11-20T14:01:25.897Z,1.47
2022-11-20T14:02:30.848Z,1.70
2022-11-20T14:04:04.716Z,1.80
2022-11-20T14:05:00.905Z,1.90
2022-11-20T14:06:06.229Z,1.50
2022-11-20T14:07:07.852Z,1.70
2022-11-20T14:08:20.737Z,3.23
2022-11-20T14:09:35.006Z,1.97
2022-11-20T14:10:40.091Z,2.23
2022-11-20T14:11:48.834Z,1.50
2022-11-20T14:12:51.673Z,1.70
2022-11-20T14:13:55.892Z,1.50
2022-11-20T14:14:57.508Z,1.43
2022-11-20T14:15:59.831Z,1.70
2022-11-20T14:17:28.806Z,1.67
2022-11-20T14:18:30.432Z,1.70
2022-11-20T14:19:32.488Z,1.80
2022-11-20T14:20:34.145Z,2.50
2022-11-20T14:21:35.591Z,1.70
2022-11-20T14:22:37.025Z,1.53
2022-11-20T14:23:39.854Z,1.80
2022-11-20T14:24:41.408Z,1.77
2022-11-20T14:25:46.264Z,1.40
2022-11-20T14:26:48.492Z,2.10
2022-11-20T14:27:55.708Z,1.57
2022-11-20T14:28:57.224Z,1.60
2022-11-20T14:30:02.432Z,1.70
2022-11-20T14:31:04.032Z,2.10
2022-11-20T14:32:06.302Z,2.40
2022-11-20T14:33:07.748Z,2.00
2022-11-20T14:34:19.308Z,2.30
2022-11-20T14:35:26.162Z,1.90
2022-11-20T14:36:28.804Z,1.53